sensor_id;sensor_type;location;lat;lon;timestamp;pressure;altitude;pressure_sealevel;temperature;humidity
22566;BME280;11449;51.330;19.378;2022-12-05T00:01:54;100007.96;;;7.33;100.00
22566;BME280;11449;51.330;19.378;2022-12-05T00:06:55;100015.80;;;8.08;100.00
22566;BME280;11449;51.330;19.378;2022-12-05T00:11:56;100006.22;;;7.34;100.00
22566;BME280;11449;51.330;19.378;2022-12-05T00:16:57;100010.27;;;7.03;100.00
22566;BME280;11449;51.330;19.378;2022-12-05T00:21:58;100001.66;;;6.59;100.00
22566;BME280;11449;51.330;19.378;2022-12-05T00:26:59;99978.59;;;6.61;100.00
22566;BME280;11449;51.330;19.378;2022-12-05T00:32:01;99979.05;;;6.64;100.00
22566;BME280;11449;51.330;19.378;2022-12-05T00:37:02;99984.27;;;6.59;100.00
22566;BME280;11449;51.330;19.378;2022-12-05T00:42:03;99989.06;;;6.57;100.00
22566;BME280;11449;51.330;19.378;2022-12-05T00:47:04;99991.66;;;6.69;100.00
22566;BME280;11449;51.330;19.378;2022-12-05T00:52:06;100007.34;;;6.27;100.00
22566;BME280;11449;51.330;19.378;2022-12-05T00:57:07;100002.56;;;6.00;100.00
22566;BME280;11449;51.330;19.378;2022-12-05T01:02:08;99995.89;;;7.08;100.00
22566;BME280;11449;51.330;19.378;2022-12-05T01:07:09;99997.84;;;7.51;100.00
22566;BME280;11449;51.330;19.378;2022-12-05T01:12:10;99990.40;;;6.42;100.00
22566;BME280;11449;51.330;19.378;2022-12-05T01:17:12;99991.63;;;6.71;100.00
22566;BME280;11449;51.330;19.378;2022-12-05T01:22:13;99981.28;;;6.22;100.00
22566;BME280;11449;51.330;19.378;2022-12-05T01:27:14;99978.22;;;6.32;100.00
22566;BME280;11449;51.330;19.378;2022-12-05T01:32:16;99978.03;;;7.04;100.00
22566;BME280;11449;51.330;19.378;2022-12-05T01:37:17;99976.27;;;7.09;100.00
22566;BME280;11449;51.330;19.378;2022-12-05T01:42:19;99969.72;;;7.12;100.00
22566;BME280;11449;51.330;19.378;2022-12-05T01:47:21;99962.02;;;6.82;100.00
22566;BME280;11449;51.330;19.378;2022-12-05T01:52:26;99965.27;;;7.33;100.00
22566;BME280;11449;51.330;19.378;2022-12-05T01:57:29;99955.06;;;6.84;100.00
22566;BME280;11449;51.330;19.378;2022-12-05T02:02:31;99957.42;;;7.39;100.00
22566;BME280;11449;51.330;19.378;2022-12-05T02:07:34;99960.84;;;6.29;100.00
22566;BME280;11449;51.330;19.378;2022-12-05T02:12:37;99972.13;;;6.49;100.00
22566;BME280;11449;51.330;19.378;2022-12-05T02:33:43;99958.77;;;7.31;100.00
22566;BME280;11449;51.330;19.378;2022-12-05T02:38:58;99945.55;;;6.60;100.00
22566;BME280;11449;51.330;19.378;2022-12-05T02:49:10;99951.30;;;5.95;100.00
22566;BME280;11449;51.330;19.378;2022-12-05T02:54:15;99951.67;;;6.49;100.00
22566;BME280;11449;51.330;19.378;2022-12-05T02:59:16;99948.59;;;7.56;100.00
22566;BME280;11449;51.330;19.378;2022-12-05T03:04:20;99934.13;;;6.90;100.00
22566;BME280;11449;51.330;19.378;2022-12-05T03:09:36;99941.27;;;6.23;100.00
22566;BME280;11449;51.330;19.378;2022-12-05T03:14:32;99942.11;;;6.49;100.00
22566;BME280;11449;51.330;19.378;2022-12-05T03:19:56;99941.13;;;6.78;100.00
22566;BME280;11449;51.330;19.378;2022-12-05T03:24:52;99930.49;;;7.86;100.00
22566;BME280;11449;51.330;19.378;2022-12-05T03:29:56;99938.08;;;6.83;100.00
22566;BME280;11449;51.330;19.378;2022-12-05T03:35:04;99944.76;;;7.40;100.00
22566;BME280;11449;51.330;19.378;2022-12-05T03:40:20;99951.68;;;6.44;100.00
22566;BME280;11449;51.330;19.378;2022-12-05T03:45:25;99954.76;;;6.30;100.00
22566;BME280;11449;51.330;19.378;2022-12-05T03:50:27;99968.66;;;6.41;100.00
22566;BME280;11449;51.330;19.378;2022-12-05T03:55:30;99972.55;;;6.43;100.00
22566;BME280;11449;51.330;19.378;2022-12-05T04:00:36;99971.68;;;6.39;100.00
22566;BME280;11449;51.330;19.378;2022-12-05T04:05:47;99970.80;;;5.86;100.00
22566;BME280;11449;51.330;19.378;2022-12-05T04:10:48;99971.19;;;6.65;100.00
22566;BME280;11449;51.330;19.378;2022-12-05T04:15:57;99964.98;;;7.07;100.00
22566;BME280;11449;51.330;19.378;2022-12-05T04:21:18;99972.42;;;6.96;100.00
22566;BME280;11449;51.330;19.378;2022-12-05T04:26:43;99971.69;;;6.45;100.00
22566;BME280;11449;51.330;19.378;2022-12-05T04:31:47;99978.63;;;6.39;100.00
22566;BME280;11449;51.330;19.378;2022-12-05T04:36:55;99975.73;;;7.33;100.00
22566;BME280;11449;51.330;19.378;2022-12-05T04:42:00;99970.13;;;7.23;100.00
22566;BME280;11449;51.330;19.378;2022-12-05T04:47:04;99979.74;;;7.14;100.00
22566;BME280;11449;51.330;19.378;2022-12-05T04:52:07;99983.69;;;8.42;100.00
22566;BME280;11449;51.330;19.378;2022-12-05T04:57:29;99979.80;;;7.02;100.00
22566;BME280;11449;51.330;19.378;2022-12-05T05:02:37;99975.52;;;6.79;100.00
22566;BME280;11449;51.330;19.378;2022-12-05T05:07:49;99988.92;;;7.82;100.00
22566;BME280;11449;51.330;19.378;2022-12-05T05:12:50;99982.01;;;6.91;100.00
22566;BME280;11449;51.330;19.378;2022-12-05T05:17:51;99971.25;;;6.53;100.00
22566;BME280;11449;51.330;19.378;2022-12-05T05:22:57;99969.72;;;7.19;100.00
22566;BME280;11449;51.330;19.378;2022-12-05T05:27:58;99969.94;;;6.43;100.00
22566;BME280;11449;51.330;19.378;2022-12-05T05:32:59;99972.11;;;6.48;100.00
22566;BME280;11449;51.330;19.378;2022-12-05T05:38:01;99948.37;;;7.19;100.00
22566;BME280;11449;51.330;19.378;2022-12-05T05:43:02;99949.11;;;8.02;100.00
22566;BME280;11449;51.330;19.378;2022-12-05T05:48:04;99949.62;;;7.28;100.00
22566;BME280;11449;51.330;19.378;2022-12-05T05:53:05;99954.87;;;7.27;100.00
22566;BME280;11449;51.330;19.378;2022-12-05T05:58:07;99964.50;;;7.14;100.00
22566;BME280;11449;51.330;19.378;2022-12-05T06:03:09;99958.47;;;6.97;100.00
22566;BME280;11449;51.330;19.378;2022-12-05T06:08:10;99961.41;;;7.27;100.00
22566;BME280;11449;51.330;19.378;2022-12-05T06:13:11;99951.36;;;7.29;100.00
22566;BME280;11449;51.330;19.378;2022-12-05T06:18:12;99946.59;;;7.24;100.00
22566;BME280;11449;51.330;19.378;2022-12-05T06:23:13;99948.35;;;7.21;100.00
22566;BME280;11449;51.330;19.378;2022-12-05T06:28:15;99955.91;;;6.88;100.00
22566;BME280;11449;51.330;19.378;2022-12-05T06:33:18;99946.73;;;6.94;100.00
22566;BME280;11449;51.330;19.378;2022-12-05T06:38:19;99946.73;;;6.94;100.00
22566;BME280;11449;51.330;19.378;2022-12-05T06:43:20;99954.48;;;7.20;100.00
22566;BME280;11449;51.330;19.378;2022-12-05T06:48:21;99955.17;;;7.50;100.00
22566;BME280;11449;51.330;19.378;2022-12-05T06:53:23;99963.16;;;7.22;100.00
22566;BME280;11449;51.330;19.378;2022-12-05T06:58:24;99968.06;;;7.76;100.00
22566;BME280;11449;51.330;19.378;2022-12-05T07:03:25;99969.80;;;7.76;100.00
22566;BME280;11449;51.330;19.378;2022-12-05T07:08:27;99951.82;;;7.93;100.00
22566;BME280;11449;51.330;19.378;2022-12-05T07:13:28;99948.73;;;7.34;100.00
22566;BME280;11449;51.330;19.378;2022-12-05T07:18:29;99948.15;;;7.55;100.00
22566;BME280;11449;51.330;19.378;2022-12-05T07:23:30;99949.73;;;7.81;100.00
22566;BME280;11449;51.330;19.378;2022-12-05T07:28:32;99956.86;;;7.56;100.00
22566;BME280;11449;51.330;19.378;2022-12-05T07:33:33;99956.48;;;7.49;100.00
22566;BME280;11449;51.330;19.378;2022-12-05T07:38:35;99950.75;;;8.16;100.00
22566;BME280;11449;51.330;19.378;2022-12-05T07:43:37;99956.06;;;7.45;100.00
22566;BME280;11449;51.330;19.378;2022-12-05T07:48:38;99948.75;;;7.28;100.00
22566;BME280;11449;51.330;19.378;2022-12-05T07:53:40;99960.95;;;7.95;100.00
22566;BME280;11449;51.330;19.378;2022-12-05T07:58:44;99953.73;;;6.87;100.00
22566;BME280;11449;51.330;19.378;2022-12-05T08:03:46;99965.36;;;7.18;100.00
22566;BME280;11449;51.330;19.378;2022-12-05T08:08:48;99964.45;;;8.45;100.00
22566;BME280;11449;51.330;19.378;2022-12-05T08:13:52;99961.00;;;7.89;100.00
22566;BME280;11449;51.330;19.378;2022-12-05T08:18:58;99975.04;;;7.77;100.00
22566;BME280;11449;51.330;19.378;2022-12-05T08:24:00;99957.58;;;7.79;100.00
22566;BME280;11449;51.330;19.378;2022-12-05T08:29:06;99979.38;;;7.81;100.00
22566;BME280;11449;51.330;19.378;2022-12-05T08:34:10;99953.06;;;8.01;100.00
22566;BME280;11449;51.330;19.378;2022-12-05T08:39:13;99953.88;;;7.50;100.00
22566;BME280;11449;51.330;19.378;2022-12-05T08:44:16;99959.20;;;7.97;100.00
22566;BME280;11449;51.330;19.378;2022-12-05T08:49:18;99956.95;;;8.55;100.00
22566;BME280;11449;51.330;19.378;2022-12-05T08:54:19;99937.91;;;7.87;100.00
22566;BME280;11449;51.330;19.378;2022-12-05T08:59:20;99951.42;;;9.18;100.00
22566;BME280;11449;51.330;19.378;2022-12-05T09:04:22;99942.10;;;7.49;100.00
22566;BME280;11449;51.330;19.378;2022-12-05T09:09:23;99940.52;;;7.88;100.00
22566;BME280;11449;51.330;19.378;2022-12-05T09:14:24;99940.69;;;8.65;100.00
22566;BME280;11449;51.330;19.378;2022-12-05T09:19:26;99934.75;;;8.50;100.00
22566;BME280;11449;51.330;19.378;2022-12-05T09:24:28;99939.94;;;8.53;100.00
22566;BME280;11449;51.330;19.378;2022-12-05T09:29:29;99942.07;;;8.96;100.00
22566;BME280;11449;51.330;19.378;2022-12-05T09:34:31;99946.49;;;8.02;100.00
22566;BME280;11449;51.330;19.378;2022-12-05T09:39:33;99942.94;;;8.13;100.00
22566;BME280;11449;51.330;19.378;2022-12-05T09:50:13;99934.72;;;8.02;100.00
22566;BME280;11449;51.330;19.378;2022-12-05T09:55:17;99934.22;;;8.10;100.00
22566;BME280;11449;51.330;19.378;2022-12-05T10:00:19;99935.18;;;8.50;100.00
22566;BME280;11449;51.330;19.378;2022-12-05T10:10:43;99922.39;;;8.63;100.00
22566;BME280;11449;51.330;19.378;2022-12-05T10:15:43;99920.43;;;8.80;100.00
22566;BME280;11449;51.330;19.378;2022-12-05T10:26:01;99897.33;;;7.91;100.00
22566;BME280;11449;51.330;19.378;2022-12-05T10:31:07;99891.12;;;8.04;100.00
22566;BME280;11449;51.330;19.378;2022-12-05T10:36:12;99898.39;;;8.62;100.00
22566;BME280;11449;51.330;19.378;2022-12-05T10:41:13;99901.95;;;9.53;100.00
22566;BME280;11449;51.330;19.378;2022-12-05T10:46:15;99880.86;;;8.28;100.00
22566;BME280;11449;51.330;19.378;2022-12-05T10:51:19;99881.72;;;8.71;100.00
22566;BME280;11449;51.330;19.378;2022-12-05T11:01:44;99871.14;;;7.94;100.00
22566;BME280;11449;51.330;19.378;2022-12-05T11:07:00;99866.58;;;8.58;100.00
22566;BME280;11449;51.330;19.378;2022-12-05T11:12:19;99867.05;;;9.77;100.00
22566;BME280;11449;51.330;19.378;2022-12-05T11:17:36;99859.41;;;8.72;100.00
22566;BME280;11449;51.330;19.378;2022-12-05T11:22:37;99850.63;;;8.79;100.00
22566;BME280;11449;51.330;19.378;2022-12-05T11:27:38;99843.38;;;9.26;100.00
22566;BME280;11449;51.330;19.378;2022-12-05T11:32:39;99854.08;;;9.13;100.00
22566;BME280;11449;51.330;19.378;2022-12-05T11:38:01;99846.10;;;8.90;100.00
22566;BME280;11449;51.330;19.378;2022-12-05T11:43:31;99843.75;;;10.55;100.00
22566;BME280;11449;51.330;19.378;2022-12-05T11:48:52;99832.28;;;9.91;100.00
22566;BME280;11449;51.330;19.378;2022-12-05T12:05:04;99839.06;;;9.77;100.00
22566;BME280;11449;51.330;19.378;2022-12-05T12:20:41;99808.95;;;9.99;100.00
22566;BME280;11449;51.330;19.378;2022-12-05T12:26:03;99820.03;;;10.80;100.00
22566;BME280;11449;51.330;19.378;2022-12-05T12:31:20;99820.84;;;11.40;100.00
22566;BME280;11449;51.330;19.378;2022-12-05T12:46:58;99806.21;;;11.28;100.00
22566;BME280;11449;51.330;19.378;2022-12-05T12:52:03;99796.72;;;11.23;100.00
22566;BME280;11449;51.330;19.378;2022-12-05T13:02:32;99818.05;;;10.90;100.00
22566;BME280;11449;51.330;19.378;2022-12-05T13:07:38;99810.15;;;10.91;100.00
22566;BME280;11449;51.330;19.378;2022-12-05T13:12:40;99809.13;;;11.88;100.00
22566;BME280;11449;51.330;19.378;2022-12-05T13:17:43;99811.39;;;11.14;100.00
22566;BME280;11449;51.330;19.378;2022-12-05T13:22:48;99815.20;;;11.37;100.00
22566;BME280;11449;51.330;19.378;2022-12-05T13:28:02;99816.63;;;10.75;100.00
22566;BME280;11449;51.330;19.378;2022-12-05T13:33:07;99805.14;;;11.74;100.00
22566;BME280;11449;51.330;19.378;2022-12-05T13:38:20;99794.22;;;11.36;100.00
22566;BME280;11449;51.330;19.378;2022-12-05T13:43:46;99797.61;;;11.22;100.00
22566;BME280;11449;51.330;19.378;2022-12-05T13:48:48;99798.69;;;10.94;100.00
22566;BME280;11449;51.330;19.378;2022-12-05T13:54:12;99800.30;;;12.07;100.00
22566;BME280;11449;51.330;19.378;2022-12-05T13:59:07;99795.20;;;10.33;100.00
22566;BME280;11449;51.330;19.378;2022-12-05T14:04:45;99790.80;;;10.35;100.00
22566;BME280;11449;51.330;19.378;2022-12-05T14:09:50;99784.98;;;11.55;100.00
22566;BME280;11449;51.330;19.378;2022-12-05T14:14:58;99800.70;;;12.41;100.00
22566;BME280;11449;51.330;19.378;2022-12-05T14:35:47;99782.56;;;10.31;100.00
22566;BME280;11449;51.330;19.378;2022-12-05T14:40:51;99778.72;;;9.77;100.00
22566;BME280;11449;51.330;19.378;2022-12-05T14:50:58;99784.45;;;9.50;100.00
22566;BME280;11449;51.330;19.378;2022-12-05T14:56:15;99778.69;;;9.55;100.00
22566;BME280;11449;51.330;19.378;2022-12-05T15:01:37;99778.30;;;10.24;100.00
22566;BME280;11449;51.330;19.378;2022-12-05T15:12:37;99766.61;;;10.80;100.00
22566;BME280;11449;51.330;19.378;2022-12-05T15:22:53;99771.78;;;9.49;100.00
22566;BME280;11449;51.330;19.378;2022-12-05T15:27:57;99765.00;;;9.63;100.00
22566;BME280;11449;51.330;19.378;2022-12-05T15:33:00;99772.59;;;10.26;100.00
22566;BME280;11449;51.330;19.378;2022-12-05T15:38:28;99767.58;;;10.95;100.00
22566;BME280;11449;51.330;19.378;2022-12-05T15:43:32;99768.00;;;10.12;100.00
22566;BME280;11449;51.330;19.378;2022-12-05T15:48:34;99775.70;;;12.39;100.00
22566;BME280;11449;51.330;19.378;2022-12-05T15:53:48;99773.03;;;10.25;100.00
22566;BME280;11449;51.330;19.378;2022-12-05T15:58:49;99769.03;;;11.26;100.00
22566;BME280;11449;51.330;19.378;2022-12-05T16:03:54;99774.73;;;11.25;100.00
22566;BME280;11449;51.330;19.378;2022-12-05T16:08:56;99763.39;;;10.86;100.00
22566;BME280;11449;51.330;19.378;2022-12-05T16:14:02;99762.16;;;11.01;100.00
22566;BME280;11449;51.330;19.378;2022-12-05T16:19:15;99752.59;;;10.39;100.00
22566;BME280;11449;51.330;19.378;2022-12-05T16:24:25;99755.30;;;12.00;100.00
22566;BME280;11449;51.330;19.378;2022-12-05T16:29:26;99745.67;;;11.65;100.00
22566;BME280;11449;51.330;19.378;2022-12-05T16:34:31;99742.80;;;11.58;100.00
22566;BME280;11449;51.330;19.378;2022-12-05T16:39:32;99740.36;;;12.01;100.00
22566;BME280;11449;51.330;19.378;2022-12-05T16:44:55;99740.12;;;12.10;100.00
22566;BME280;11449;51.330;19.378;2022-12-05T16:50:18;99734.56;;;10.83;100.00
22566;BME280;11449;51.330;19.378;2022-12-05T16:55:04;99721.81;;;11.39;100.00
22566;BME280;11449;51.330;19.378;2022-12-05T17:00:11;99718.68;;;11.41;100.00
22566;BME280;11449;51.330;19.378;2022-12-05T17:05:13;99714.66;;;11.60;100.00
22566;BME280;11449;51.330;19.378;2022-12-05T17:10:15;99711.45;;;11.49;100.00
22566;BME280;11449;51.330;19.378;2022-12-05T17:15:17;99709.98;;;11.39;100.00
22566;BME280;11449;51.330;19.378;2022-12-05T17:20:19;99714.38;;;11.88;100.00
22566;BME280;11449;51.330;19.378;2022-12-05T17:25:26;99711.28;;;10.67;100.00
22566;BME280;11449;51.330;19.378;2022-12-05T17:30:24;99706.94;;;10.85;100.00
22566;BME280;11449;51.330;19.378;2022-12-05T17:35:27;99710.04;;;10.83;100.00
22566;BME280;11449;51.330;19.378;2022-12-05T17:40:28;99699.08;;;10.26;100.00
22566;BME280;11449;51.330;19.378;2022-12-05T17:45:30;99701.45;;;10.38;100.00
22566;BME280;11449;51.330;19.378;2022-12-05T17:50:31;99701.70;;;10.46;100.00
22566;BME280;11449;51.330;19.378;2022-12-05T17:55:33;99691.52;;;10.09;100.00
22566;BME280;11449;51.330;19.378;2022-12-05T18:00:34;99704.20;;;10.51;100.00
22566;BME280;11449;51.330;19.378;2022-12-05T18:05:35;99702.61;;;10.63;100.00
22566;BME280;11449;51.330;19.378;2022-12-05T18:10:41;99714.41;;;10.65;100.00
22566;BME280;11449;51.330;19.378;2022-12-05T18:15:45;99716.26;;;11.83;100.00
22566;BME280;11449;51.330;19.378;2022-12-05T18:20:47;99708.69;;;11.55;100.00
22566;BME280;11449;51.330;19.378;2022-12-05T18:25:58;99704.17;;;10.89;100.00
22566;BME280;11449;51.330;19.378;2022-12-05T18:31:04;99708.83;;;11.49;100.00
22566;BME280;11449;51.330;19.378;2022-12-05T18:36:11;99709.44;;;10.89;100.00
22566;BME280;11449;51.330;19.378;2022-12-05T18:41:13;99707.08;;;11.66;100.00
22566;BME280;11449;51.330;19.378;2022-12-05T18:46:15;99711.62;;;10.32;100.00
22566;BME280;11449;51.330;19.378;2022-12-05T18:51:21;99704.77;;;10.84;100.00
22566;BME280;11449;51.330;19.378;2022-12-05T19:01:28;99714.97;;;11.66;100.00
22566;BME280;11449;51.330;19.378;2022-12-05T19:06:32;99710.97;;;11.85;100.00
22566;BME280;11449;51.330;19.378;2022-12-05T19:11:36;99709.00;;;13.07;100.00
22566;BME280;11449;51.330;19.378;2022-12-05T19:16:37;99706.95;;;13.56;100.00
22566;BME280;11449;51.330;19.378;2022-12-05T19:21:39;99710.95;;;12.45;100.00
22566;BME280;11449;51.330;19.378;2022-12-05T19:26:40;99709.91;;;11.90;100.00
22566;BME280;11449;51.330;19.378;2022-12-05T19:31:42;99700.62;;;12.39;100.00
22566;BME280;11449;51.330;19.378;2022-12-05T19:36:44;99703.45;;;11.70;100.00
22566;BME280;11449;51.330;19.378;2022-12-05T19:41:47;99709.05;;;11.40;100.00
22566;BME280;11449;51.330;19.378;2022-12-05T19:46:49;99705.89;;;13.73;100.00
22566;BME280;11449;51.330;19.378;2022-12-05T19:51:50;99702.30;;;12.12;100.00
22566;BME280;11449;51.330;19.378;2022-12-05T19:56:52;99695.13;;;11.53;100.00
22566;BME280;11449;51.330;19.378;2022-12-05T20:01:55;99691.25;;;11.83;100.00
22566;BME280;11449;51.330;19.378;2022-12-05T20:06:56;99690.11;;;11.10;100.00
22566;BME280;11449;51.330;19.378;2022-12-05T20:11:57;99688.45;;;12.06;100.00
22566;BME280;11449;51.330;19.378;2022-12-05T20:16:58;99684.62;;;12.30;100.00
22566;BME280;11449;51.330;19.378;2022-12-05T20:21:59;99682.16;;;12.54;100.00
22566;BME280;11449;51.330;19.378;2022-12-05T20:27:00;99672.91;;;12.26;100.00
22566;BME280;11449;51.330;19.378;2022-12-05T20:32:02;99671.70;;;11.10;100.00
22566;BME280;11449;51.330;19.378;2022-12-05T20:37:03;99665.13;;;10.74;100.00
22566;BME280;11449;51.330;19.378;2022-12-05T20:42:04;99656.92;;;10.51;100.00
22566;BME280;11449;51.330;19.378;2022-12-05T20:47:05;99654.02;;;10.63;100.00
22566;BME280;11449;51.330;19.378;2022-12-05T20:52:07;99659.57;;;11.22;100.00
22566;BME280;11449;51.330;19.378;2022-12-05T20:57:09;99657.75;;;11.08;100.00
22566;BME280;11449;51.330;19.378;2022-12-05T21:02:10;99654.88;;;11.17;100.00
22566;BME280;11449;51.330;19.378;2022-12-05T21:07:11;99656.91;;;11.06;100.00
22566;BME280;11449;51.330;19.378;2022-12-05T21:12:12;99653.64;;;11.14;100.00
22566;BME280;11449;51.330;19.378;2022-12-05T21:17:13;99649.30;;;10.95;100.00
22566;BME280;11449;51.330;19.378;2022-12-05T21:22:15;99649.61;;;11.01;100.00
22566;BME280;11449;51.330;19.378;2022-12-05T21:27:16;99650.97;;;10.81;100.00
22566;BME280;11449;51.330;19.378;2022-12-05T21:32:17;99649.14;;;11.01;100.00
22566;BME280;11449;51.330;19.378;2022-12-05T21:37:18;99652.50;;;11.08;100.00
22566;BME280;11449;51.330;19.378;2022-12-05T21:42:19;99649.61;;;11.17;100.00
22566;BME280;11449;51.330;19.378;2022-12-05T21:47:20;99649.16;;;10.83;100.00
22566;BME280;11449;51.330;19.378;2022-12-05T21:52:21;99650.73;;;10.73;100.00
22566;BME280;11449;51.330;19.378;2022-12-05T21:57:23;99647.56;;;10.94;100.00
22566;BME280;11449;51.330;19.378;2022-12-05T22:02:24;99642.98;;;11.02;100.00
22566;BME280;11449;51.330;19.378;2022-12-05T22:07:25;99651.78;;;11.35;100.00
22566;BME280;11449;51.330;19.378;2022-12-05T22:12:26;99651.27;;;11.05;100.00
22566;BME280;11449;51.330;19.378;2022-12-05T22:17:27;99648.65;;;11.37;100.00
22566;BME280;11449;51.330;19.378;2022-12-05T22:22:28;99657.80;;;10.88;100.00
22566;BME280;11449;51.330;19.378;2022-12-05T22:27:29;99651.13;;;10.74;100.00
22566;BME280;11449;51.330;19.378;2022-12-05T22:32:30;99654.90;;;10.99;100.00
22566;BME280;11449;51.330;19.378;2022-12-05T22:37:32;99643.85;;;10.67;100.00
22566;BME280;11449;51.330;19.378;2022-12-05T22:42:33;99638.52;;;10.70;100.00
22566;BME280;11449;51.330;19.378;2022-12-05T22:47:34;99630.34;;;11.00;100.00
22566;BME280;11449;51.330;19.378;2022-12-05T22:52:36;99639.04;;;10.67;100.00
22566;BME280;11449;51.330;19.378;2022-12-05T22:57:37;99639.11;;;11.33;100.00
22566;BME280;11449;51.330;19.378;2022-12-05T23:02:38;99636.23;;;11.26;100.00
22566;BME280;11449;51.330;19.378;2022-12-05T23:07:40;99628.13;;;10.83;100.00
22566;BME280;11449;51.330;19.378;2022-12-05T23:12:41;99626.79;;;11.19;100.00
22566;BME280;11449;51.330;19.378;2022-12-05T23:17:42;99610.17;;;11.65;100.00
22566;BME280;11449;51.330;19.378;2022-12-05T23:22:45;99600.27;;;12.19;100.00
22566;BME280;11449;51.330;19.378;2022-12-05T23:27:47;99596.00;;;12.15;100.00
22566;BME280;11449;51.330;19.378;2022-12-05T23:32:49;99589.11;;;11.51;100.00
22566;BME280;11449;51.330;19.378;2022-12-05T23:37:51;99584.81;;;11.63;100.00
22566;BME280;11449;51.330;19.378;2022-12-05T23:42:53;99581.89;;;12.58;100.00
22566;BME280;11449;51.330;19.378;2022-12-05T23:47:54;99577.05;;;13.23;100.00
22566;BME280;11449;51.330;19.378;2022-12-05T23:52:55;99571.41;;;13.08;100.00
22566;BME280;11449;51.330;19.378;2022-12-05T23:57:57;99576.20;;;13.35;100.00
